Ethelbert, Canada
Current Conditions -  °F | °C
As of 4:00 AM on Sunday 25 Jan 2015 (Local Time) from CYDN Reporting Station
Overcast Overcast  
Wind Chill: 10°   Ceiling: 2300
Heat Index: 10°   Visibility: 9mi
Dew Point:   Wind: 3mph
Humidity: 85%   Direction: 310°NW
Pressure: 30.02"   Gusts: NA
Location:  51.53°N, 100.4°W
Report Text: CYDN 251000Z AUTO 31003KT 9SM BKN023 BKN029 OVC080 M12/M14 A3002 RMK SLP193
Loading
Personal Weather Stations






























Interactive Weather Map New forecast layout! Learn more

10-Day Weather Forecast

Advertisements
Track Severe Weather on mobile